sensor_id;sensor_type;location;lat;lon;timestamp;temperature;humidity
7942;HTU21D;4016;50.758;7.150;2023-07-31T00:01:37;18.77;110.93
7942;HTU21D;4016;50.758;7.150;2023-07-31T00:06:38;18.61;112.93
7942;HTU21D;4016;50.758;7.150;2023-07-31T00:11:38;18.63;112.03
7942;HTU21D;4016;50.758;7.150;2023-07-31T00:16:38;18.76;111.37
7942;HTU21D;4016;50.758;7.150;2023-07-31T00:21:39;18.70;111.98
7942;HTU21D;4016;50.758;7.150;2023-07-31T00:26:39;18.74;111.97
7942;HTU21D;4016;50.758;7.150;2023-07-31T00:31:40;18.79;111.27
7942;HTU21D;4016;50.758;7.150;2023-07-31T00:36:40;18.92;111.08
7942;HTU21D;4016;50.758;7.150;2023-07-31T00:41:40;18.91;111.22
7942;HTU21D;4016;50.758;7.150;2023-07-31T00:46:41;18.71;113.06
7942;HTU21D;4016;50.758;7.150;2023-07-31T00:51:42;18.68;113.42
7942;HTU21D;4016;50.758;7.150;2023-07-31T00:56:45;18.70;113.28
7942;HTU21D;4016;50.758;7.150;2023-07-31T01:01:46;18.71;113.06
7942;HTU21D;4016;50.758;7.150;2023-07-31T01:07:09;18.68;113.83
7942;HTU21D;4016;50.758;7.150;2023-07-31T01:12:14;18.89;112.63
7942;HTU21D;4016;50.758;7.150;2023-07-31T01:17:16;18.73;114.97
7942;HTU21D;4016;50.758;7.150;2023-07-31T01:28:05;18.54;118.22
7942;HTU21D;4016;50.758;7.150;2023-07-31T01:33:06;18.44;118.99
7942;HTU21D;4016;50.758;7.150;2023-07-31T01:38:08;18.24;118.99
7942;HTU21D;4016;50.758;7.150;2023-07-31T01:43:08;18.00;118.99
7942;HTU21D;4016;50.758;7.150;2023-07-31T01:48:08;17.96;118.99
7942;HTU21D;4016;50.758;7.150;2023-07-31T01:53:09;17.74;118.99
7942;HTU21D;4016;50.758;7.150;2023-07-31T01:58:09;17.65;118.99
7942;HTU21D;4016;50.758;7.150;2023-07-31T02:03:10;17.66;118.99
7942;HTU21D;4016;50.758;7.150;2023-07-31T02:08:10;17.60;118.99
7942;HTU21D;4016;50.758;7.150;2023-07-31T02:13:10;17.65;118.99
7942;HTU21D;4016;50.758;7.150;2023-07-31T02:18:11;17.78;118.99
7942;HTU21D;4016;50.758;7.150;2023-07-31T02:23:11;17.78;118.99
7942;HTU21D;4016;50.758;7.150;2023-07-31T02:28:12;17.80;118.99
7942;HTU21D;4016;50.758;7.150;2023-07-31T02:33:12;17.67;118.99
7942;HTU21D;4016;50.758;7.150;2023-07-31T02:38:12;17.79;118.99
7942;HTU21D;4016;50.758;7.150;2023-07-31T02:43:13;17.75;118.99
7942;HTU21D;4016;50.758;7.150;2023-07-31T02:48:13;17.72;118.99
7942;HTU21D;4016;50.758;7.150;2023-07-31T02:53:14;17.99;118.99
7942;HTU21D;4016;50.758;7.150;2023-07-31T02:58:14;17.99;118.99
7942;HTU21D;4016;50.758;7.150;2023-07-31T03:03:14;17.89;118.99
7942;HTU21D;4016;50.758;7.150;2023-07-31T03:08:15;18.04;118.99
7942;HTU21D;4016;50.758;7.150;2023-07-31T03:13:15;17.92;118.99
7942;HTU21D;4016;50.758;7.150;2023-07-31T03:18:15;17.93;118.99
7942;HTU21D;4016;50.758;7.150;2023-07-31T03:23:16;17.93;118.99
7942;HTU21D;4016;50.758;7.150;2023-07-31T03:28:16;18.10;118.99
7942;HTU21D;4016;50.758;7.150;2023-07-31T03:33:16;18.11;118.99
7942;HTU21D;4016;50.758;7.150;2023-07-31T03:38:17;18.33;117.26
7942;HTU21D;4016;50.758;7.150;2023-07-31T03:43:17;18.20;117.94
7942;HTU21D;4016;50.758;7.150;2023-07-31T03:48:18;18.13;118.40
7942;HTU21D;4016;50.758;7.150;2023-07-31T03:53:18;18.26;116.80
7942;HTU21D;4016;50.758;7.150;2023-07-31T03:58:19;18.17;118.32
7942;HTU21D;4016;50.758;7.150;2023-07-31T04:03:19;18.40;115.33
7942;HTU21D;4016;50.758;7.150;2023-07-31T04:08:19;18.22;117.02
7942;HTU21D;4016;50.758;7.150;2023-07-31T04:13:22;18.42;115.21
7942;HTU21D;4016;50.758;7.150;2023-07-31T04:18:24;18.39;116.31
7942;HTU21D;4016;50.758;7.150;2023-07-31T04:23:25;18.39;115.62
7942;HTU21D;4016;50.758;7.150;2023-07-31T04:28:25;18.18;117.20
7942;HTU21D;4016;50.758;7.150;2023-07-31T04:33:26;18.32;115.66
7942;HTU21D;4016;50.758;7.150;2023-07-31T04:38:26;18.29;115.93
7942;HTU21D;4016;50.758;7.150;2023-07-31T04:43:27;18.41;114.86
7942;HTU21D;4016;50.758;7.150;2023-07-31T04:48:27;18.40;114.98
7942;HTU21D;4016;50.758;7.150;2023-07-31T04:53:27;18.37;115.47
7942;HTU21D;4016;50.758;7.150;2023-07-31T04:58:28;18.34;116.70
7942;HTU21D;4016;50.758;7.150;2023-07-31T05:03:28;18.36;117.10
7942;HTU21D;4016;50.758;7.150;2023-07-31T05:08:28;18.54;114.65
7942;HTU21D;4016;50.758;7.150;2023-07-31T05:13:29;18.56;114.86
7942;HTU21D;4016;50.758;7.150;2023-07-31T05:18:29;18.68;114.60
7942;HTU21D;4016;50.758;7.150;2023-07-31T05:23:30;18.64;116.38
7942;HTU21D;4016;50.758;7.150;2023-07-31T05:28:34;18.71;115.54
7942;HTU21D;4016;50.758;7.150;2023-07-31T05:33:35;18.85;113.87
7942;HTU21D;4016;50.758;7.150;2023-07-31T05:38:35;18.94;115.19
7942;HTU21D;4016;50.758;7.150;2023-07-31T05:43:35;18.98;115.10
7942;HTU21D;4016;50.758;7.150;2023-07-31T05:48:36;19.12;113.67
7942;HTU21D;4016;50.758;7.150;2023-07-31T05:53:36;19.16;113.61
7942;HTU21D;4016;50.758;7.150;2023-07-31T05:58:40;19.08;113.38
7942;HTU21D;4016;50.758;7.150;2023-07-31T06:03:41;19.09;115.11
7942;HTU21D;4016;50.758;7.150;2023-07-31T06:08:41;19.13;115.53
7942;HTU21D;4016;50.758;7.150;2023-07-31T06:13:41;19.17;115.39
7942;HTU21D;4016;50.758;7.150;2023-07-31T06:18:44;19.14;116.19
7942;HTU21D;4016;50.758;7.150;2023-07-31T06:23:45;19.06;118.91
7942;HTU21D;4016;50.758;7.150;2023-07-31T06:28:45;18.84;118.99
7942;HTU21D;4016;50.758;7.150;2023-07-31T06:33:45;18.94;118.99
7942;HTU21D;4016;50.758;7.150;2023-07-31T06:38:47;18.55;118.99
7942;HTU21D;4016;50.758;7.150;2023-07-31T06:43:48;18.50;118.99
7942;HTU21D;4016;50.758;7.150;2023-07-31T06:48:48;18.46;118.99
7942;HTU21D;4016;50.758;7.150;2023-07-31T06:53:49;18.49;118.99
7942;HTU21D;4016;50.758;7.150;2023-07-31T06:58:49;18.49;118.99
7942;HTU21D;4016;50.758;7.150;2023-07-31T07:03:49;18.62;118.99
7942;HTU21D;4016;50.758;7.150;2023-07-31T07:08:50;18.72;118.99
7942;HTU21D;4016;50.758;7.150;2023-07-31T07:13:51;19.03;118.99
7942;HTU21D;4016;50.758;7.150;2023-07-31T07:18:52;19.41;118.99
7942;HTU21D;4016;50.758;7.150;2023-07-31T07:23:52;19.87;118.99
7942;HTU21D;4016;50.758;7.150;2023-07-31T07:28:52;19.90;118.99
7942;HTU21D;4016;50.758;7.150;2023-07-31T07:33:53;19.95;118.99
7942;HTU21D;4016;50.758;7.150;2023-07-31T07:38:53;19.82;118.01
7942;HTU21D;4016;50.758;7.150;2023-07-31T07:43:54;19.82;117.17
7942;HTU21D;4016;50.758;7.150;2023-07-31T07:48:54;19.54;118.99
7942;HTU21D;4016;50.758;7.150;2023-07-31T07:53:54;19.35;118.99
7942;HTU21D;4016;50.758;7.150;2023-07-31T07:58:55;19.22;118.99
7942;HTU21D;4016;50.758;7.150;2023-07-31T08:03:55;19.06;118.99
7942;HTU21D;4016;50.758;7.150;2023-07-31T08:08:55;18.94;118.99
7942;HTU21D;4016;50.758;7.150;2023-07-31T08:13:56;18.85;118.99
7942;HTU21D;4016;50.758;7.150;2023-07-31T08:18:56;18.80;118.99
7942;HTU21D;4016;50.758;7.150;2023-07-31T08:23:57;18.91;118.99
7942;HTU21D;4016;50.758;7.150;2023-07-31T08:28:57;18.84;118.99
7942;HTU21D;4016;50.758;7.150;2023-07-31T08:33:58;18.78;118.99
7942;HTU21D;4016;50.758;7.150;2023-07-31T08:38:58;18.84;118.99
7942;HTU21D;4016;50.758;7.150;2023-07-31T08:43:59;18.89;118.99
7942;HTU21D;4016;50.758;7.150;2023-07-31T08:49:04;18.92;118.99
7942;HTU21D;4016;50.758;7.150;2023-07-31T08:54:05;18.98;118.99
7942;HTU21D;4016;50.758;7.150;2023-07-31T08:59:06;19.03;118.99
7942;HTU21D;4016;50.758;7.150;2023-07-31T09:04:09;19.03;118.99
7942;HTU21D;4016;50.758;7.150;2023-07-31T09:09:09;19.05;118.99
7942;HTU21D;4016;50.758;7.150;2023-07-31T09:14:10;19.10;118.99
7942;HTU21D;4016;50.758;7.150;2023-07-31T09:19:10;19.14;118.99
7942;HTU21D;4016;50.758;7.150;2023-07-31T09:24:25;19.24;118.99
7942;HTU21D;4016;50.758;7.150;2023-07-31T09:29:27;19.24;118.99
7942;HTU21D;4016;50.758;7.150;2023-07-31T09:34:37;19.22;118.99
7942;HTU21D;4016;50.758;7.150;2023-07-31T09:39:47;19.29;118.99
7942;HTU21D;4016;50.758;7.150;2023-07-31T09:44:48;19.37;118.99
7942;HTU21D;4016;50.758;7.150;2023-07-31T09:49:48;19.39;118.99
7942;HTU21D;4016;50.758;7.150;2023-07-31T09:54:48;19.47;118.99
7942;HTU21D;4016;50.758;7.150;2023-07-31T09:59:49;19.56;118.99
7942;HTU21D;4016;50.758;7.150;2023-07-31T10:04:52;19.72;118.99
7942;HTU21D;4016;50.758;7.150;2023-07-31T10:09:53;19.85;118.99
7942;HTU21D;4016;50.758;7.150;2023-07-31T10:14:56;19.97;118.99
7942;HTU21D;4016;50.758;7.150;2023-07-31T10:19:58;20.15;118.99
7942;HTU21D;4016;50.758;7.150;2023-07-31T10:25:00;20.28;118.99
7942;HTU21D;4016;50.758;7.150;2023-07-31T10:30:03;20.24;118.99
7942;HTU21D;4016;50.758;7.150;2023-07-31T10:35:05;20.43;118.99
7942;HTU21D;4016;50.758;7.150;2023-07-31T10:40:15;20.66;118.99
7942;HTU21D;4016;50.758;7.150;2023-07-31T10:45:42;20.92;118.99
7942;HTU21D;4016;50.758;7.150;2023-07-31T10:50:55;21.29;118.99
7942;HTU21D;4016;50.758;7.150;2023-07-31T10:56:00;21.33;110.54
7942;HTU21D;4016;50.758;7.150;2023-07-31T11:01:05;21.33;102.34
7942;HTU21D;4016;50.758;7.150;2023-07-31T11:06:05;21.21;101.18
7942;HTU21D;4016;50.758;7.150;2023-07-31T11:11:08;21.16;100.96
7942;HTU21D;4016;50.758;7.150;2023-07-31T11:16:13;21.09;100.83
7942;HTU21D;4016;50.758;7.150;2023-07-31T11:21:15;21.10;100.38
7942;HTU21D;4016;50.758;7.150;2023-07-31T11:26:16;21.11;99.99
7942;HTU21D;4016;50.758;7.150;2023-07-31T11:31:18;21.22;101.01
7942;HTU21D;4016;50.758;7.150;2023-07-31T11:36:20;21.13;101.99
7942;HTU21D;4016;50.758;7.150;2023-07-31T11:41:20;20.94;107.46
7942;HTU21D;4016;50.758;7.150;2023-07-31T11:46:21;20.44;115.66
7942;HTU21D;4016;50.758;7.150;2023-07-31T11:51:22;20.72;114.52
7942;HTU21D;4016;50.758;7.150;2023-07-31T11:56:23;21.21;109.55
7942;HTU21D;4016;50.758;7.150;2023-07-31T12:01:24;21.67;110.68
7942;HTU21D;4016;50.758;7.150;2023-07-31T12:06:35;21.91;105.68
7942;HTU21D;4016;50.758;7.150;2023-07-31T12:11:46;22.28;104.32
7942;HTU21D;4016;50.758;7.150;2023-07-31T12:16:46;22.62;103.93
7942;HTU21D;4016;50.758;7.150;2023-07-31T12:21:47;22.96;99.51
7942;HTU21D;4016;50.758;7.150;2023-07-31T12:26:48;23.00;94.66
7942;HTU21D;4016;50.758;7.150;2023-07-31T12:31:49;22.99;96.29
7942;HTU21D;4016;50.758;7.150;2023-07-31T12:36:49;22.94;95.37
7942;HTU21D;4016;50.758;7.150;2023-07-31T12:41:50;22.49;95.53
7942;HTU21D;4016;50.758;7.150;2023-07-31T12:46:50;22.34;98.38
7942;HTU21D;4016;50.758;7.150;2023-07-31T12:51:50;22.39;96.68
7942;HTU21D;4016;50.758;7.150;2023-07-31T12:56:51;22.38;96.35
7942;HTU21D;4016;50.758;7.150;2023-07-31T13:01:51;22.23;97.57
7942;HTU21D;4016;50.758;7.150;2023-07-31T13:06:52;22.38;98.32
7942;HTU21D;4016;50.758;7.150;2023-07-31T13:11:52;22.40;97.48
7942;HTU21D;4016;50.758;7.150;2023-07-31T13:16:52;22.46;95.62
7942;HTU21D;4016;50.758;7.150;2023-07-31T13:21:53;22.61;95.40
7942;HTU21D;4016;50.758;7.150;2023-07-31T13:26:55;22.61;94.07
7942;HTU21D;4016;50.758;7.150;2023-07-31T13:31:55;22.73;95.86
7942;HTU21D;4016;50.758;7.150;2023-07-31T13:36:55;22.66;95.32
7942;HTU21D;4016;50.758;7.150;2023-07-31T13:41:56;22.82;94.30
7942;HTU21D;4016;50.758;7.150;2023-07-31T13:46:56;22.88;92.46
7942;HTU21D;4016;50.758;7.150;2023-07-31T13:51:57;22.79;91.22
7942;HTU21D;4016;50.758;7.150;2023-07-31T13:56:58;22.96;91.63
7942;HTU21D;4016;50.758;7.150;2023-07-31T14:01:58;23.23;93.74
7942;HTU21D;4016;50.758;7.150;2023-07-31T14:06:58;23.27;90.80
7942;HTU21D;4016;50.758;7.150;2023-07-31T14:11:59;23.32;91.16
7942;HTU21D;4016;50.758;7.150;2023-07-31T14:16:59;23.05;92.67
7942;HTU21D;4016;50.758;7.150;2023-07-31T14:22:00;22.60;92.61
7942;HTU21D;4016;50.758;7.150;2023-07-31T14:27:00;22.54;95.69
7942;HTU21D;4016;50.758;7.150;2023-07-31T14:32:00;22.40;94.21
7942;HTU21D;4016;50.758;7.150;2023-07-31T14:37:01;22.33;96.78
7942;HTU21D;4016;50.758;7.150;2023-07-31T14:42:01;22.01;97.55
7942;HTU21D;4016;50.758;7.150;2023-07-31T14:47:02;21.94;97.72
7942;HTU21D;4016;50.758;7.150;2023-07-31T14:52:03;21.81;98.16
7942;HTU21D;4016;50.758;7.150;2023-07-31T14:57:03;21.74;98.12
7942;HTU21D;4016;50.758;7.150;2023-07-31T15:02:04;21.73;98.97
7942;HTU21D;4016;50.758;7.150;2023-07-31T15:07:05;21.74;100.03
7942;HTU21D;4016;50.758;7.150;2023-07-31T15:12:06;21.67;98.48
7942;HTU21D;4016;50.758;7.150;2023-07-31T15:17:06;21.62;98.48
7942;HTU21D;4016;50.758;7.150;2023-07-31T15:22:07;21.55;100.82
7942;HTU21D;4016;50.758;7.150;2023-07-31T15:27:07;21.55;100.30
7942;HTU21D;4016;50.758;7.150;2023-07-31T15:32:08;21.53;100.67
7942;HTU21D;4016;50.758;7.150;2023-07-31T15:37:09;21.61;100.42
7942;HTU21D;4016;50.758;7.150;2023-07-31T15:42:09;21.66;99.95
7942;HTU21D;4016;50.758;7.150;2023-07-31T15:47:10;21.78;98.26
7942;HTU21D;4016;50.758;7.150;2023-07-31T15:52:10;21.78;98.08
7942;HTU21D;4016;50.758;7.150;2023-07-31T15:57:10;21.64;98.15
7942;HTU21D;4016;50.758;7.150;2023-07-31T16:02:11;21.51;99.02
7942;HTU21D;4016;50.758;7.150;2023-07-31T16:07:11;21.51;100.03
7942;HTU21D;4016;50.758;7.150;2023-07-31T16:12:12;21.44;98.99
7942;HTU21D;4016;50.758;7.150;2023-07-31T16:17:13;21.47;100.61
7942;HTU21D;4016;50.758;7.150;2023-07-31T16:22:13;21.33;104.69
7942;HTU21D;4016;50.758;7.150;2023-07-31T16:27:13;20.90;108.40
7942;HTU21D;4016;50.758;7.150;2023-07-31T16:32:14;20.44;114.42
7942;HTU21D;4016;50.758;7.150;2023-07-31T16:37:14;20.10;117.77
7942;HTU21D;4016;50.758;7.150;2023-07-31T16:42:14;19.84;118.99
7942;HTU21D;4016;50.758;7.150;2023-07-31T16:47:15;19.63;118.99
7942;HTU21D;4016;50.758;7.150;2023-07-31T16:52:16;19.53;118.99
7942;HTU21D;4016;50.758;7.150;2023-07-31T16:57:17;19.58;118.99
7942;HTU21D;4016;50.758;7.150;2023-07-31T17:02:17;19.43;118.99
7942;HTU21D;4016;50.758;7.150;2023-07-31T17:07:18;19.31;118.99
7942;HTU21D;4016;50.758;7.150;2023-07-31T17:12:21;19.28;118.99
7942;HTU21D;4016;50.758;7.150;2023-07-31T17:17:21;19.29;118.99
7942;HTU21D;4016;50.758;7.150;2023-07-31T17:22:23;19.25;118.99
7942;HTU21D;4016;50.758;7.150;2023-07-31T17:27:24;19.16;118.99
7942;HTU21D;4016;50.758;7.150;2023-07-31T17:32:25;19.13;118.99
7942;HTU21D;4016;50.758;7.150;2023-07-31T17:37:26;18.97;118.99
7942;HTU21D;4016;50.758;7.150;2023-07-31T17:42:27;18.93;118.99
7942;HTU21D;4016;50.758;7.150;2023-07-31T17:47:27;18.81;118.99
7942;HTU21D;4016;50.758;7.150;2023-07-31T17:52:27;18.88;118.99
7942;HTU21D;4016;50.758;7.150;2023-07-31T17:57:28;18.64;118.99
7942;HTU21D;4016;50.758;7.150;2023-07-31T18:02:28;18.63;118.99
7942;HTU21D;4016;50.758;7.150;2023-07-31T18:07:29;18.67;118.99
7942;HTU21D;4016;50.758;7.150;2023-07-31T18:12:30;18.56;118.99
7942;HTU21D;4016;50.758;7.150;2023-07-31T18:17:30;18.52;118.99
7942;HTU21D;4016;50.758;7.150;2023-07-31T18:22:30;18.36;118.99
7942;HTU21D;4016;50.758;7.150;2023-07-31T18:27:31;18.27;118.99
7942;HTU21D;4016;50.758;7.150;2023-07-31T18:32:31;18.34;118.99
7942;HTU21D;4016;50.758;7.150;2023-07-31T18:37:31;18.26;118.99
7942;HTU21D;4016;50.758;7.150;2023-07-31T18:42:32;18.22;118.99
7942;HTU21D;4016;50.758;7.150;2023-07-31T18:47:32;18.11;118.99
7942;HTU21D;4016;50.758;7.150;2023-07-31T18:52:32;17.99;118.99
7942;HTU21D;4016;50.758;7.150;2023-07-31T18:57:33;18.03;118.99
7942;HTU21D;4016;50.758;7.150;2023-07-31T19:02:33;18.05;118.99
7942;HTU21D;4016;50.758;7.150;2023-07-31T19:07:34;17.96;118.99
7942;HTU21D;4016;50.758;7.150;2023-07-31T19:12:34;17.88;118.99
7942;HTU21D;4016;50.758;7.150;2023-07-31T19:17:34;17.92;118.99
7942;HTU21D;4016;50.758;7.150;2023-07-31T19:22:36;17.90;118.99
7942;HTU21D;4016;50.758;7.150;2023-07-31T19:27:37;17.89;118.99
7942;HTU21D;4016;50.758;7.150;2023-07-31T19:32:37;17.82;118.99
7942;HTU21D;4016;50.758;7.150;2023-07-31T19:37:37;17.92;118.99
7942;HTU21D;4016;50.758;7.150;2023-07-31T19:42:38;17.84;118.99
7942;HTU21D;4016;50.758;7.150;2023-07-31T19:47:38;17.81;118.99
7942;HTU21D;4016;50.758;7.150;2023-07-31T19:52:38;17.79;118.99
7942;HTU21D;4016;50.758;7.150;2023-07-31T19:57:40;17.68;118.99
7942;HTU21D;4016;50.758;7.150;2023-07-31T20:02:40;17.61;118.99
7942;HTU21D;4016;50.758;7.150;2023-07-31T20:07:41;17.55;118.99
7942;HTU21D;4016;50.758;7.150;2023-07-31T20:12:41;17.49;118.99
7942;HTU21D;4016;50.758;7.150;2023-07-31T20:17:42;17.49;118.99
7942;HTU21D;4016;50.758;7.150;2023-07-31T20:22:42;17.56;118.99
7942;HTU21D;4016;50.758;7.150;2023-07-31T20:27:42;17.50;118.99
7942;HTU21D;4016;50.758;7.150;2023-07-31T20:32:43;17.51;118.99
7942;HTU21D;4016;50.758;7.150;2023-07-31T20:37:44;17.51;118.99
7942;HTU21D;4016;50.758;7.150;2023-07-31T20:42:55;17.61;118.99
7942;HTU21D;4016;50.758;7.150;2023-07-31T20:47:56;17.58;118.99
7942;HTU21D;4016;50.758;7.150;2023-07-31T20:52:56;17.52;118.99
7942;HTU21D;4016;50.758;7.150;2023-07-31T20:57:57;17.59;118.99
7942;HTU21D;4016;50.758;7.150;2023-07-31T21:02:57;17.80;118.99
7942;HTU21D;4016;50.758;7.150;2023-07-31T21:07:59;17.80;118.99
7942;HTU21D;4016;50.758;7.150;2023-07-31T21:12:59;17.68;118.99
7942;HTU21D;4016;50.758;7.150;2023-07-31T21:17:59;17.62;118.99
7942;HTU21D;4016;50.758;7.150;2023-07-31T21:23:00;17.64;118.99
7942;HTU21D;4016;50.758;7.150;2023-07-31T21:28:04;17.62;118.99
7942;HTU21D;4016;50.758;7.150;2023-07-31T21:33:05;17.59;118.99
7942;HTU21D;4016;50.758;7.150;2023-07-31T21:38:05;17.54;118.99
7942;HTU21D;4016;50.758;7.150;2023-07-31T21:43:07;17.53;118.99
7942;HTU21D;4016;50.758;7.150;2023-07-31T21:48:08;17.61;118.99
7942;HTU21D;4016;50.758;7.150;2023-07-31T21:53:08;17.55;118.99
7942;HTU21D;4016;50.758;7.150;2023-07-31T21:58:08;17.59;118.99
7942;HTU21D;4016;50.758;7.150;2023-07-31T22:03:09;17.51;118.99
7942;HTU21D;4016;50.758;7.150;2023-07-31T22:08:09;17.51;118.99
7942;HTU21D;4016;50.758;7.150;2023-07-31T22:13:10;17.53;118.99
7942;HTU21D;4016;50.758;7.150;2023-07-31T22:18:10;17.54;118.99
7942;HTU21D;4016;50.758;7.150;2023-07-31T22:23:10;17.47;118.99
7942;HTU21D;4016;50.758;7.150;2023-07-31T22:28:11;17.45;118.99
7942;HTU21D;4016;50.758;7.150;2023-07-31T22:33:11;17.52;118.99
7942;HTU21D;4016;50.758;7.150;2023-07-31T22:38:11;17.50;118.99
7942;HTU21D;4016;50.758;7.150;2023-07-31T22:43:12;17.53;118.99
7942;HTU21D;4016;50.758;7.150;2023-07-31T22:48:13;17.50;118.99
7942;HTU21D;4016;50.758;7.150;2023-07-31T22:53:13;17.51;118.99
7942;HTU21D;4016;50.758;7.150;2023-07-31T22:58:14;17.59;118.99
7942;HTU21D;4016;50.758;7.150;2023-07-31T23:03:14;17.53;118.99
7942;HTU21D;4016;50.758;7.150;2023-07-31T23:08:14;17.53;118.99
7942;HTU21D;4016;50.758;7.150;2023-07-31T23:13:16;17.52;118.99
7942;HTU21D;4016;50.758;7.150;2023-07-31T23:18:16;17.51;118.99
7942;HTU21D;4016;50.758;7.150;2023-07-31T23:23:17;17.58;118.99
7942;HTU21D;4016;50.758;7.150;2023-07-31T23:28:19;17.51;118.99
7942;HTU21D;4016;50.758;7.150;2023-07-31T23:33:19;17.52;118.99
7942;HTU21D;4016;50.758;7.150;2023-07-31T23:38:19;17.60;118.99
7942;HTU21D;4016;50.758;7.150;2023-07-31T23:43:20;17.69;118.99
7942;HTU21D;4016;50.758;7.150;2023-07-31T23:48:20;17.62;118.99
7942;HTU21D;4016;50.758;7.150;2023-07-31T23:53:21;17.63;118.99
7942;HTU21D;4016;50.758;7.150;2023-07-31T23:58:22;17.47;118.99
